sensor_id;sensor_type;location;lat;lon;timestamp;P1;durP1;ratioP1;P2;durP2;ratioP2
76552;SDS011;65395;53.168;18.156;2023-05-14T00:01:08;13.50;;;7.30;;
76552;SDS011;65395;53.168;18.156;2023-05-14T00:03:34;13.00;;;7.50;;
76552;SDS011;65395;53.168;18.156;2023-05-14T00:06:02;15.10;;;7.20;;
76552;SDS011;65395;53.168;18.156;2023-05-14T00:08:29;12.60;;;6.80;;
76552;SDS011;65395;53.168;18.156;2023-05-14T00:10:55;13.70;;;7.00;;
76552;SDS011;65395;53.168;18.156;2023-05-14T00:13:22;11.70;;;7.30;;
76552;SDS011;65395;53.168;18.156;2023-05-14T00:15:54;11.90;;;7.50;;
76552;SDS011;65395;53.168;18.156;2023-05-14T00:18:20;17.10;;;8.80;;
76552;SDS011;65395;53.168;18.156;2023-05-14T00:20:47;15.10;;;8.90;;
76552;SDS011;65395;53.168;18.156;2023-05-14T00:23:14;14.20;;;8.40;;
76552;SDS011;65395;53.168;18.156;2023-05-14T00:25:42;24.50;;;8.70;;
76552;SDS011;65395;53.168;18.156;2023-05-14T00:28:08;17.20;;;7.70;;
76552;SDS011;65395;53.168;18.156;2023-05-14T00:30:35;14.90;;;7.80;;
76552;SDS011;65395;53.168;18.156;2023-05-14T00:33:02;13.20;;;7.30;;
76552;SDS011;65395;53.168;18.156;2023-05-14T00:35:29;10.80;;;7.20;;
76552;SDS011;65395;53.168;18.156;2023-05-14T00:37:56;12.20;;;7.30;;
76552;SDS011;65395;53.168;18.156;2023-05-14T00:40:24;13.30;;;7.50;;
76552;SDS011;65395;53.168;18.156;2023-05-14T00:42:53;12.50;;;7.40;;
76552;SDS011;65395;53.168;18.156;2023-05-14T00:45:21;12.50;;;7.70;;
76552;SDS011;65395;53.168;18.156;2023-05-14T00:47:48;12.80;;;7.60;;
76552;SDS011;65395;53.168;18.156;2023-05-14T00:50:15;10.10;;;7.20;;
76552;SDS011;65395;53.168;18.156;2023-05-14T00:52:42;10.20;;;7.40;;
76552;SDS011;65395;53.168;18.156;2023-05-14T00:55:10;9.50;;;7.20;;
76552;SDS011;65395;53.168;18.156;2023-05-14T00:57:41;12.00;;;7.00;;
76552;SDS011;65395;53.168;18.156;2023-05-14T01:00:09;10.50;;;7.40;;
76552;SDS011;65395;53.168;18.156;2023-05-14T01:02:36;16.60;;;7.90;;
76552;SDS011;65395;53.168;18.156;2023-05-14T01:05:03;25.50;;;8.50;;
76552;SDS011;65395;53.168;18.156;2023-05-14T01:07:40;23.60;;;8.10;;
76552;SDS011;65395;53.168;18.156;2023-05-14T01:13:01;22.30;;;7.90;;
76552;SDS011;65395;53.168;18.156;2023-05-14T01:15:35;41.60;;;9.10;;
76552;SDS011;65395;53.168;18.156;2023-05-14T01:18:08;28.70;;;7.80;;
76552;SDS011;65395;53.168;18.156;2023-05-14T01:20:36;15.20;;;7.60;;
76552;SDS011;65395;53.168;18.156;2023-05-14T01:23:03;12.90;;;7.30;;
76552;SDS011;65395;53.168;18.156;2023-05-14T01:25:30;12.80;;;7.20;;
76552;SDS011;65395;53.168;18.156;2023-05-14T01:28:00;12.50;;;7.40;;
76552;SDS011;65395;53.168;18.156;2023-05-14T01:30:35;13.30;;;7.20;;
76552;SDS011;65395;53.168;18.156;2023-05-14T01:33:06;11.30;;;7.10;;
76552;SDS011;65395;53.168;18.156;2023-05-14T01:35:36;10.00;;;7.40;;
76552;SDS011;65395;53.168;18.156;2023-05-14T01:38:04;11.70;;;7.00;;
76552;SDS011;65395;53.168;18.156;2023-05-14T01:40:35;9.90;;;7.40;;
76552;SDS011;65395;53.168;18.156;2023-05-14T01:43:03;11.70;;;7.20;;
76552;SDS011;65395;53.168;18.156;2023-05-14T01:45:30;12.00;;;7.30;;
76552;SDS011;65395;53.168;18.156;2023-05-14T01:48:00;11.90;;;7.10;;
76552;SDS011;65395;53.168;18.156;2023-05-14T01:50:27;15.60;;;8.00;;
76552;SDS011;65395;53.168;18.156;2023-05-14T01:52:54;12.90;;;8.10;;
76552;SDS011;65395;53.168;18.156;2023-05-14T01:55:22;12.10;;;7.70;;
76552;SDS011;65395;53.168;18.156;2023-05-14T01:57:50;10.60;;;7.40;;
76552;SDS011;65395;53.168;18.156;2023-05-14T02:00:18;13.40;;;8.10;;
76552;SDS011;65395;53.168;18.156;2023-05-14T02:02:45;11.60;;;7.70;;
76552;SDS011;65395;53.168;18.156;2023-05-14T02:05:12;12.90;;;8.00;;
76552;SDS011;65395;53.168;18.156;2023-05-14T02:07:39;12.50;;;7.90;;
76552;SDS011;65395;53.168;18.156;2023-05-14T02:10:06;12.60;;;7.90;;
76552;SDS011;65395;53.168;18.156;2023-05-14T02:12:33;11.20;;;7.60;;
76552;SDS011;65395;53.168;18.156;2023-05-14T02:15:01;25.60;;;8.60;;
76552;SDS011;65395;53.168;18.156;2023-05-14T02:17:29;13.20;;;8.30;;
76552;SDS011;65395;53.168;18.156;2023-05-14T02:19:55;14.30;;;8.10;;
76552;SDS011;65395;53.168;18.156;2023-05-14T02:22:22;14.60;;;7.30;;
76552;SDS011;65395;53.168;18.156;2023-05-14T02:24:48;11.00;;;7.30;;
76552;SDS011;65395;53.168;18.156;2023-05-14T02:27:17;13.70;;;8.70;;
76552;SDS011;65395;53.168;18.156;2023-05-14T02:29:44;12.10;;;7.90;;
76552;SDS011;65395;53.168;18.156;2023-05-14T02:32:10;11.40;;;7.70;;
76552;SDS011;65395;53.168;18.156;2023-05-14T02:34:37;14.80;;;8.60;;
76552;SDS011;65395;53.168;18.156;2023-05-14T02:37:03;13.00;;;8.50;;
76552;SDS011;65395;53.168;18.156;2023-05-14T02:39:31;14.00;;;9.20;;
76552;SDS011;65395;53.168;18.156;2023-05-14T02:41:57;12.20;;;8.60;;
76552;SDS011;65395;53.168;18.156;2023-05-14T02:44:24;14.00;;;9.30;;
76552;SDS011;65395;53.168;18.156;2023-05-14T02:46:50;15.60;;;9.70;;
76552;SDS011;65395;53.168;18.156;2023-05-14T02:49:17;14.10;;;9.00;;
76552;SDS011;65395;53.168;18.156;2023-05-14T02:51:44;16.80;;;10.10;;
76552;SDS011;65395;53.168;18.156;2023-05-14T02:54:11;14.80;;;9.80;;
76552;SDS011;65395;53.168;18.156;2023-05-14T02:56:37;15.20;;;9.90;;
76552;SDS011;65395;53.168;18.156;2023-05-14T02:59:04;13.50;;;9.10;;
76552;SDS011;65395;53.168;18.156;2023-05-14T03:01:31;15.20;;;9.20;;
76552;SDS011;65395;53.168;18.156;2023-05-14T03:03:57;16.90;;;9.50;;
76552;SDS011;65395;53.168;18.156;2023-05-14T03:06:24;16.40;;;9.10;;
76552;SDS011;65395;53.168;18.156;2023-05-14T03:08:51;16.90;;;9.40;;
76552;SDS011;65395;53.168;18.156;2023-05-14T03:11:17;12.80;;;8.60;;
76552;SDS011;65395;53.168;18.156;2023-05-14T03:13:44;14.90;;;9.30;;
76552;SDS011;65395;53.168;18.156;2023-05-14T03:16:11;15.20;;;9.00;;
76552;SDS011;65395;53.168;18.156;2023-05-14T03:18:38;16.30;;;10.90;;
76552;SDS011;65395;53.168;18.156;2023-05-14T03:21:04;20.90;;;12.60;;
76552;SDS011;65395;53.168;18.156;2023-05-14T03:23:31;23.60;;;12.70;;
76552;SDS011;65395;53.168;18.156;2023-05-14T03:26:00;18.00;;;12.60;;
76552;SDS011;65395;53.168;18.156;2023-05-14T03:28:27;19.90;;;12.80;;
76552;SDS011;65395;53.168;18.156;2023-05-14T03:30:54;18.20;;;11.60;;
76552;SDS011;65395;53.168;18.156;2023-05-14T03:33:21;15.00;;;11.00;;
76552;SDS011;65395;53.168;18.156;2023-05-14T03:35:48;20.10;;;12.00;;
76552;SDS011;65395;53.168;18.156;2023-05-14T03:38:14;18.40;;;11.80;;
76552;SDS011;65395;53.168;18.156;2023-05-14T03:40:42;15.80;;;11.30;;
76552;SDS011;65395;53.168;18.156;2023-05-14T03:43:10;17.70;;;11.50;;
76552;SDS011;65395;53.168;18.156;2023-05-14T03:45:37;16.90;;;10.10;;
76552;SDS011;65395;53.168;18.156;2023-05-14T03:48:04;19.80;;;11.70;;
76552;SDS011;65395;53.168;18.156;2023-05-14T03:50:31;19.10;;;12.40;;
76552;SDS011;65395;53.168;18.156;2023-05-14T03:52:58;17.30;;;12.30;;
76552;SDS011;65395;53.168;18.156;2023-05-14T03:55:25;20.00;;;12.70;;
76552;SDS011;65395;53.168;18.156;2023-05-14T03:57:52;22.10;;;11.90;;
76552;SDS011;65395;53.168;18.156;2023-05-14T04:00:19;19.00;;;12.50;;
76552;SDS011;65395;53.168;18.156;2023-05-14T04:02:47;18.70;;;12.40;;
76552;SDS011;65395;53.168;18.156;2023-05-14T04:05:15;20.10;;;12.70;;
76552;SDS011;65395;53.168;18.156;2023-05-14T04:07:41;19.40;;;12.90;;
76552;SDS011;65395;53.168;18.156;2023-05-14T04:10:08;19.90;;;12.20;;
76552;SDS011;65395;53.168;18.156;2023-05-14T04:12:35;16.90;;;12.20;;
76552;SDS011;65395;53.168;18.156;2023-05-14T04:15:03;23.30;;;12.80;;
76552;SDS011;65395;53.168;18.156;2023-05-14T04:17:31;21.40;;;12.80;;
76552;SDS011;65395;53.168;18.156;2023-05-14T04:19:57;21.30;;;13.20;;
76552;SDS011;65395;53.168;18.156;2023-05-14T04:22:24;20.70;;;13.10;;
76552;SDS011;65395;53.168;18.156;2023-05-14T04:24:51;16.60;;;11.70;;
76552;SDS011;65395;53.168;18.156;2023-05-14T04:27:18;17.00;;;11.50;;
76552;SDS011;65395;53.168;18.156;2023-05-14T04:29:47;19.40;;;12.30;;
76552;SDS011;65395;53.168;18.156;2023-05-14T04:32:15;18.80;;;12.90;;
76552;SDS011;65395;53.168;18.156;2023-05-14T04:34:43;18.80;;;11.90;;
76552;SDS011;65395;53.168;18.156;2023-05-14T04:37:10;16.90;;;11.90;;
76552;SDS011;65395;53.168;18.156;2023-05-14T04:39:36;17.50;;;11.70;;
76552;SDS011;65395;53.168;18.156;2023-05-14T04:42:03;19.10;;;12.00;;
76552;SDS011;65395;53.168;18.156;2023-05-14T04:44:32;22.20;;;12.20;;
76552;SDS011;65395;53.168;18.156;2023-05-14T04:47:00;20.10;;;12.60;;
76552;SDS011;65395;53.168;18.156;2023-05-14T04:49:27;18.40;;;11.50;;
76552;SDS011;65395;53.168;18.156;2023-05-14T04:51:54;20.10;;;12.50;;
76552;SDS011;65395;53.168;18.156;2023-05-14T04:54:21;17.20;;;12.10;;
76552;SDS011;65395;53.168;18.156;2023-05-14T04:56:47;18.10;;;11.90;;
76552;SDS011;65395;53.168;18.156;2023-05-14T04:59:15;19.50;;;11.70;;
76552;SDS011;65395;53.168;18.156;2023-05-14T05:01:42;20.20;;;12.20;;
76552;SDS011;65395;53.168;18.156;2023-05-14T05:04:08;18.60;;;12.30;;
76552;SDS011;65395;53.168;18.156;2023-05-14T05:06:35;16.60;;;12.00;;
76552;SDS011;65395;53.168;18.156;2023-05-14T05:09:02;18.00;;;12.70;;
76552;SDS011;65395;53.168;18.156;2023-05-14T05:11:29;20.70;;;12.30;;
76552;SDS011;65395;53.168;18.156;2023-05-14T05:13:55;19.70;;;12.10;;
76552;SDS011;65395;53.168;18.156;2023-05-14T05:16:22;19.00;;;11.40;;
76552;SDS011;65395;53.168;18.156;2023-05-14T05:18:49;19.70;;;12.20;;
76552;SDS011;65395;53.168;18.156;2023-05-14T05:21:16;17.70;;;11.30;;
76552;SDS011;65395;53.168;18.156;2023-05-14T05:23:42;17.40;;;11.00;;
76552;SDS011;65395;53.168;18.156;2023-05-14T05:26:09;17.90;;;11.50;;
76552;SDS011;65395;53.168;18.156;2023-05-14T05:28:35;17.60;;;11.70;;
76552;SDS011;65395;53.168;18.156;2023-05-14T05:31:02;19.20;;;11.90;;
76552;SDS011;65395;53.168;18.156;2023-05-14T05:33:29;17.60;;;11.80;;
76552;SDS011;65395;53.168;18.156;2023-05-14T05:35:55;15.80;;;11.20;;
76552;SDS011;65395;53.168;18.156;2023-05-14T05:38:22;17.30;;;11.80;;
76552;SDS011;65395;53.168;18.156;2023-05-14T05:40:49;15.20;;;11.80;;
76552;SDS011;65395;53.168;18.156;2023-05-14T05:43:15;16.50;;;11.50;;
76552;SDS011;65395;53.168;18.156;2023-05-14T05:45:42;20.40;;;10.80;;
76552;SDS011;65395;53.168;18.156;2023-05-14T05:48:09;16.80;;;10.20;;
76552;SDS011;65395;53.168;18.156;2023-05-14T05:50:36;14.80;;;10.70;;
76552;SDS011;65395;53.168;18.156;2023-05-14T05:53:02;18.10;;;10.50;;
76552;SDS011;65395;53.168;18.156;2023-05-14T05:55:29;17.30;;;10.70;;
76552;SDS011;65395;53.168;18.156;2023-05-14T05:57:56;15.30;;;11.40;;
76552;SDS011;65395;53.168;18.156;2023-05-14T06:00:22;16.80;;;11.00;;
76552;SDS011;65395;53.168;18.156;2023-05-14T06:02:51;15.00;;;11.40;;
76552;SDS011;65395;53.168;18.156;2023-05-14T06:05:18;19.40;;;11.50;;
76552;SDS011;65395;53.168;18.156;2023-05-14T06:07:45;18.50;;;11.30;;
76552;SDS011;65395;53.168;18.156;2023-05-14T06:10:11;17.30;;;11.00;;
76552;SDS011;65395;53.168;18.156;2023-05-14T06:12:38;14.70;;;11.20;;
76552;SDS011;65395;53.168;18.156;2023-05-14T06:15:05;16.20;;;11.00;;
76552;SDS011;65395;53.168;18.156;2023-05-14T06:17:32;17.60;;;11.20;;
76552;SDS011;65395;53.168;18.156;2023-05-14T06:19:59;14.80;;;11.00;;
76552;SDS011;65395;53.168;18.156;2023-05-14T06:22:26;18.60;;;11.80;;
76552;SDS011;65395;53.168;18.156;2023-05-14T06:24:53;15.00;;;11.10;;
76552;SDS011;65395;53.168;18.156;2023-05-14T06:27:19;19.90;;;11.60;;
76552;SDS011;65395;53.168;18.156;2023-05-14T06:29:46;19.30;;;11.20;;
76552;SDS011;65395;53.168;18.156;2023-05-14T06:32:12;13.60;;;10.90;;
76552;SDS011;65395;53.168;18.156;2023-05-14T06:34:41;17.90;;;11.40;;
76552;SDS011;65395;53.168;18.156;2023-05-14T06:37:08;14.30;;;10.50;;
76552;SDS011;65395;53.168;18.156;2023-05-14T06:39:36;15.60;;;11.70;;
76552;SDS011;65395;53.168;18.156;2023-05-14T06:42:03;16.00;;;10.50;;
76552;SDS011;65395;53.168;18.156;2023-05-14T06:44:30;16.40;;;11.70;;
76552;SDS011;65395;53.168;18.156;2023-05-14T06:46:57;16.80;;;11.60;;
76552;SDS011;65395;53.168;18.156;2023-05-14T06:49:24;21.60;;;11.10;;
76552;SDS011;65395;53.168;18.156;2023-05-14T06:51:50;15.30;;;10.70;;
76552;SDS011;65395;53.168;18.156;2023-05-14T06:54:17;16.90;;;11.90;;
76552;SDS011;65395;53.168;18.156;2023-05-14T06:56:45;15.40;;;11.40;;
76552;SDS011;65395;53.168;18.156;2023-05-14T06:59:12;17.80;;;10.90;;
76552;SDS011;65395;53.168;18.156;2023-05-14T07:01:39;15.20;;;11.30;;
76552;SDS011;65395;53.168;18.156;2023-05-14T07:04:06;16.50;;;12.10;;
76552;SDS011;65395;53.168;18.156;2023-05-14T07:06:33;16.20;;;11.70;;
76552;SDS011;65395;53.168;18.156;2023-05-14T07:08:59;18.60;;;12.40;;
76552;SDS011;65395;53.168;18.156;2023-05-14T07:11:26;16.40;;;11.80;;
76552;SDS011;65395;53.168;18.156;2023-05-14T07:13:53;16.30;;;11.50;;
76552;SDS011;65395;53.168;18.156;2023-05-14T07:16:20;14.00;;;10.50;;
76552;SDS011;65395;53.168;18.156;2023-05-14T07:18:46;17.70;;;10.80;;
76552;SDS011;65395;53.168;18.156;2023-05-14T07:21:15;18.30;;;12.00;;
76552;SDS011;65395;53.168;18.156;2023-05-14T07:23:42;24.40;;;10.90;;
76552;SDS011;65395;53.168;18.156;2023-05-14T07:26:09;17.50;;;11.00;;
76552;SDS011;65395;53.168;18.156;2023-05-14T07:28:36;13.70;;;10.30;;
76552;SDS011;65395;53.168;18.156;2023-05-14T07:31:02;12.20;;;9.40;;
76552;SDS011;65395;53.168;18.156;2023-05-14T07:33:34;14.70;;;9.10;;
76552;SDS011;65395;53.168;18.156;2023-05-14T07:36:01;14.20;;;7.90;;
76552;SDS011;65395;53.168;18.156;2023-05-14T07:38:28;12.50;;;8.50;;
76552;SDS011;65395;53.168;18.156;2023-05-14T07:40:55;13.30;;;8.40;;
76552;SDS011;65395;53.168;18.156;2023-05-14T07:43:22;12.70;;;8.40;;
76552;SDS011;65395;53.168;18.156;2023-05-14T07:45:48;11.10;;;8.30;;
76552;SDS011;65395;53.168;18.156;2023-05-14T07:48:15;12.70;;;8.40;;
76552;SDS011;65395;53.168;18.156;2023-05-14T07:50:42;10.50;;;7.50;;
76552;SDS011;65395;53.168;18.156;2023-05-14T07:53:09;11.30;;;7.70;;
76552;SDS011;65395;53.168;18.156;2023-05-14T07:55:35;12.70;;;7.70;;
76552;SDS011;65395;53.168;18.156;2023-05-14T07:58:02;13.20;;;8.20;;
76552;SDS011;65395;53.168;18.156;2023-05-14T08:00:29;10.30;;;7.60;;
76552;SDS011;65395;53.168;18.156;2023-05-14T08:02:56;11.60;;;7.00;;
76552;SDS011;65395;53.168;18.156;2023-05-14T08:05:22;7.90;;;6.50;;
76552;SDS011;65395;53.168;18.156;2023-05-14T08:07:49;12.40;;;7.50;;
76552;SDS011;65395;53.168;18.156;2023-05-14T08:10:16;11.80;;;7.00;;
76552;SDS011;65395;53.168;18.156;2023-05-14T08:12:42;9.10;;;6.60;;
76552;SDS011;65395;53.168;18.156;2023-05-14T08:15:09;11.60;;;6.70;;
76552;SDS011;65395;53.168;18.156;2023-05-14T08:17:36;11.70;;;7.10;;
76552;SDS011;65395;53.168;18.156;2023-05-14T08:20:03;8.60;;;6.50;;
76552;SDS011;65395;53.168;18.156;2023-05-14T08:22:31;8.60;;;6.20;;
76552;SDS011;65395;53.168;18.156;2023-05-14T08:24:58;10.30;;;6.00;;
76552;SDS011;65395;53.168;18.156;2023-05-14T08:27:26;7.60;;;6.10;;
76552;SDS011;65395;53.168;18.156;2023-05-14T08:29:53;9.00;;;5.20;;
76552;SDS011;65395;53.168;18.156;2023-05-14T08:32:19;11.10;;;5.90;;
76552;SDS011;65395;53.168;18.156;2023-05-14T08:34:46;10.00;;;5.80;;
76552;SDS011;65395;53.168;18.156;2023-05-14T08:37:12;6.90;;;4.80;;
76552;SDS011;65395;53.168;18.156;2023-05-14T08:39:39;9.50;;;3.30;;
76552;SDS011;65395;53.168;18.156;2023-05-14T08:42:06;4.70;;;3.30;;
76552;SDS011;65395;53.168;18.156;2023-05-14T08:44:36;8.40;;;3.60;;
76552;SDS011;65395;53.168;18.156;2023-05-14T08:47:09;5.20;;;3.50;;
76552;SDS011;65395;53.168;18.156;2023-05-14T08:49:39;6.30;;;3.10;;
76552;SDS011;65395;53.168;18.156;2023-05-14T08:52:07;5.80;;;3.70;;
76552;SDS011;65395;53.168;18.156;2023-05-14T08:54:35;4.70;;;3.00;;
76552;SDS011;65395;53.168;18.156;2023-05-14T08:57:02;7.40;;;3.60;;
76552;SDS011;65395;53.168;18.156;2023-05-14T08:59:30;7.80;;;3.20;;
76552;SDS011;65395;53.168;18.156;2023-05-14T09:01:57;9.40;;;3.40;;
76552;SDS011;65395;53.168;18.156;2023-05-14T09:04:27;6.70;;;3.40;;
76552;SDS011;65395;53.168;18.156;2023-05-14T09:06:54;6.80;;;3.00;;
76552;SDS011;65395;53.168;18.156;2023-05-14T09:09:21;7.60;;;3.20;;
76552;SDS011;65395;53.168;18.156;2023-05-14T09:11:49;5.40;;;3.20;;
76552;SDS011;65395;53.168;18.156;2023-05-14T09:14:17;5.70;;;3.20;;
76552;SDS011;65395;53.168;18.156;2023-05-14T09:16:46;5.00;;;3.20;;
76552;SDS011;65395;53.168;18.156;2023-05-14T09:19:14;8.20;;;2.90;;
76552;SDS011;65395;53.168;18.156;2023-05-14T09:21:44;7.40;;;3.20;;
76552;SDS011;65395;53.168;18.156;2023-05-14T09:24:19;4.80;;;3.20;;
76552;SDS011;65395;53.168;18.156;2023-05-14T09:26:49;4.20;;;3.00;;
76552;SDS011;65395;53.168;18.156;2023-05-14T09:29:18;7.10;;;3.00;;
76552;SDS011;65395;53.168;18.156;2023-05-14T09:31:45;6.80;;;3.20;;
76552;SDS011;65395;53.168;18.156;2023-05-14T09:34:12;10.20;;;2.90;;
76552;SDS011;65395;53.168;18.156;2023-05-14T09:36:58;5.50;;;3.00;;
76552;SDS011;65395;53.168;18.156;2023-05-14T09:39:27;4.40;;;3.30;;
76552;SDS011;65395;53.168;18.156;2023-05-14T09:41:54;14.70;;;3.10;;
76552;SDS011;65395;53.168;18.156;2023-05-14T09:44:22;4.00;;;3.00;;
76552;SDS011;65395;53.168;18.156;2023-05-14T09:46:50;4.30;;;2.80;;
76552;SDS011;65395;53.168;18.156;2023-05-14T09:49:18;5.20;;;3.00;;
76552;SDS011;65395;53.168;18.156;2023-05-14T09:51:46;6.80;;;3.10;;
76552;SDS011;65395;53.168;18.156;2023-05-14T09:54:14;6.30;;;2.80;;
76552;SDS011;65395;53.168;18.156;2023-05-14T09:56:41;4.00;;;2.80;;
76552;SDS011;65395;53.168;18.156;2023-05-14T09:59:09;6.70;;;2.90;;
76552;SDS011;65395;53.168;18.156;2023-05-14T10:01:36;3.30;;;2.80;;
76552;SDS011;65395;53.168;18.156;2023-05-14T10:04:05;5.20;;;2.90;;
76552;SDS011;65395;53.168;18.156;2023-05-14T10:06:35;3.70;;;3.10;;
76552;SDS011;65395;53.168;18.156;2023-05-14T10:09:05;4.20;;;2.60;;
76552;SDS011;65395;53.168;18.156;2023-05-14T10:11:39;6.40;;;3.40;;
76552;SDS011;65395;53.168;18.156;2023-05-14T10:14:12;6.10;;;2.70;;
76552;SDS011;65395;53.168;18.156;2023-05-14T10:16:47;4.90;;;3.30;;
76552;SDS011;65395;53.168;18.156;2023-05-14T10:19:17;7.10;;;3.20;;
76552;SDS011;65395;53.168;18.156;2023-05-14T10:21:47;5.90;;;2.90;;
76552;SDS011;65395;53.168;18.156;2023-05-14T10:24:21;7.30;;;3.10;;
76552;SDS011;65395;53.168;18.156;2023-05-14T10:26:49;6.60;;;3.10;;
76552;SDS011;65395;53.168;18.156;2023-05-14T10:29:17;3.70;;;3.00;;
76552;SDS011;65395;53.168;18.156;2023-05-14T10:31:51;4.40;;;2.90;;
76552;SDS011;65395;53.168;18.156;2023-05-14T10:36:58;10.60;;;3.50;;
76552;SDS011;65395;53.168;18.156;2023-05-14T10:42:09;6.60;;;3.20;;
76552;SDS011;65395;53.168;18.156;2023-05-14T10:44:40;5.50;;;2.80;;
76552;SDS011;65395;53.168;18.156;2023-05-14T10:47:13;4.90;;;3.10;;
76552;SDS011;65395;53.168;18.156;2023-05-14T10:49:41;6.20;;;3.30;;
76552;SDS011;65395;53.168;18.156;2023-05-14T10:52:10;5.50;;;3.20;;
76552;SDS011;65395;53.168;18.156;2023-05-14T10:54:37;6.10;;;3.10;;
76552;SDS011;65395;53.168;18.156;2023-05-14T10:57:09;5.10;;;3.70;;
76552;SDS011;65395;53.168;18.156;2023-05-14T10:59:39;5.60;;;3.10;;
76552;SDS011;65395;53.168;18.156;2023-05-14T11:02:17;5.70;;;3.10;;
76552;SDS011;65395;53.168;18.156;2023-05-14T11:04:53;5.90;;;3.00;;
76552;SDS011;65395;53.168;18.156;2023-05-14T11:07:33;5.60;;;3.20;;
76552;SDS011;65395;53.168;18.156;2023-05-14T11:10:03;6.40;;;3.20;;
76552;SDS011;65395;53.168;18.156;2023-05-14T11:12:32;7.70;;;3.00;;
76552;SDS011;65395;53.168;18.156;2023-05-14T11:15:00;5.60;;;3.10;;
76552;SDS011;65395;53.168;18.156;2023-05-14T11:17:29;5.60;;;3.20;;
76552;SDS011;65395;53.168;18.156;2023-05-14T11:19:57;7.10;;;3.20;;
76552;SDS011;65395;53.168;18.156;2023-05-14T11:22:24;6.70;;;3.10;;
76552;SDS011;65395;53.168;18.156;2023-05-14T11:24:51;11.80;;;3.30;;
76552;SDS011;65395;53.168;18.156;2023-05-14T11:27:19;6.70;;;3.40;;
76552;SDS011;65395;53.168;18.156;2023-05-14T11:29:47;9.40;;;3.00;;
76552;SDS011;65395;53.168;18.156;2023-05-14T11:32:15;5.30;;;3.10;;
76552;SDS011;65395;53.168;18.156;2023-05-14T11:34:43;13.00;;;3.00;;
76552;SDS011;65395;53.168;18.156;2023-05-14T11:37:11;3.90;;;2.90;;
76552;SDS011;65395;53.168;18.156;2023-05-14T11:39:45;5.20;;;2.90;;
76552;SDS011;65395;53.168;18.156;2023-05-14T11:42:14;5.60;;;2.90;;
76552;SDS011;65395;53.168;18.156;2023-05-14T11:44:43;5.60;;;2.70;;
76552;SDS011;65395;53.168;18.156;2023-05-14T11:47:12;4.10;;;2.80;;
76552;SDS011;65395;53.168;18.156;2023-05-14T11:49:39;4.70;;;2.90;;
76552;SDS011;65395;53.168;18.156;2023-05-14T11:52:07;5.00;;;3.00;;
76552;SDS011;65395;53.168;18.156;2023-05-14T11:54:37;4.80;;;3.20;;
76552;SDS011;65395;53.168;18.156;2023-05-14T11:57:08;7.20;;;3.20;;
76552;SDS011;65395;53.168;18.156;2023-05-14T11:59:37;4.80;;;2.70;;
76552;SDS011;65395;53.168;18.156;2023-05-14T12:02:07;5.20;;;2.90;;
76552;SDS011;65395;53.168;18.156;2023-05-14T12:04:37;4.90;;;2.90;;
76552;SDS011;65395;53.168;18.156;2023-05-14T12:07:13;5.90;;;3.40;;
76552;SDS011;65395;53.168;18.156;2023-05-14T12:09:42;5.70;;;3.40;;
76552;SDS011;65395;53.168;18.156;2023-05-14T12:12:18;6.40;;;3.30;;
76552;SDS011;65395;53.168;18.156;2023-05-14T12:14:47;6.10;;;3.00;;
76552;SDS011;65395;53.168;18.156;2023-05-14T12:17:15;7.60;;;3.00;;
76552;SDS011;65395;53.168;18.156;2023-05-14T12:19:44;6.90;;;3.20;;
76552;SDS011;65395;53.168;18.156;2023-05-14T12:22:14;6.50;;;3.40;;
76552;SDS011;65395;53.168;18.156;2023-05-14T12:24:52;7.30;;;3.10;;
76552;SDS011;65395;53.168;18.156;2023-05-14T12:27:21;5.70;;;3.10;;
76552;SDS011;65395;53.168;18.156;2023-05-14T12:29:50;8.60;;;3.00;;
76552;SDS011;65395;53.168;18.156;2023-05-14T12:32:30;5.50;;;3.00;;
76552;SDS011;65395;53.168;18.156;2023-05-14T12:34:58;5.00;;;3.20;;
76552;SDS011;65395;53.168;18.156;2023-05-14T12:37:26;6.90;;;3.40;;
76552;SDS011;65395;53.168;18.156;2023-05-14T12:39:53;6.00;;;2.90;;
76552;SDS011;65395;53.168;18.156;2023-05-14T12:42:20;4.90;;;3.00;;
76552;SDS011;65395;53.168;18.156;2023-05-14T12:44:47;7.70;;;3.30;;
76552;SDS011;65395;53.168;18.156;2023-05-14T12:47:14;5.30;;;3.40;;
76552;SDS011;65395;53.168;18.156;2023-05-14T12:49:42;5.50;;;3.10;;
76552;SDS011;65395;53.168;18.156;2023-05-14T12:52:08;7.70;;;3.10;;
76552;SDS011;65395;53.168;18.156;2023-05-14T12:54:35;4.00;;;3.30;;
76552;SDS011;65395;53.168;18.156;2023-05-14T12:57:05;5.50;;;3.30;;
76552;SDS011;65395;53.168;18.156;2023-05-14T12:59:32;4.20;;;3.00;;
76552;SDS011;65395;53.168;18.156;2023-05-14T13:01:59;4.40;;;3.30;;
76552;SDS011;65395;53.168;18.156;2023-05-14T13:04:25;4.40;;;3.00;;
76552;SDS011;65395;53.168;18.156;2023-05-14T13:06:52;4.20;;;3.20;;
76552;SDS011;65395;53.168;18.156;2023-05-14T13:09:19;5.70;;;3.10;;
76552;SDS011;65395;53.168;18.156;2023-05-14T13:11:45;6.00;;;3.50;;
76552;SDS011;65395;53.168;18.156;2023-05-14T13:14:12;8.00;;;3.10;;
76552;SDS011;65395;53.168;18.156;2023-05-14T13:16:39;8.90;;;3.40;;
76552;SDS011;65395;53.168;18.156;2023-05-14T13:19:06;4.70;;;3.20;;
76552;SDS011;65395;53.168;18.156;2023-05-14T13:21:33;6.60;;;3.20;;
76552;SDS011;65395;53.168;18.156;2023-05-14T13:23:59;6.10;;;3.00;;
76552;SDS011;65395;53.168;18.156;2023-05-14T13:26:26;7.40;;;3.40;;
76552;SDS011;65395;53.168;18.156;2023-05-14T13:28:54;6.10;;;3.20;;
76552;SDS011;65395;53.168;18.156;2023-05-14T13:31:21;4.80;;;3.00;;
76552;SDS011;65395;53.168;18.156;2023-05-14T13:33:48;4.00;;;2.90;;
76552;SDS011;65395;53.168;18.156;2023-05-14T13:36:14;4.80;;;3.20;;
76552;SDS011;65395;53.168;18.156;2023-05-14T13:38:41;5.70;;;2.70;;
76552;SDS011;65395;53.168;18.156;2023-05-14T13:41:08;5.60;;;3.00;;
76552;SDS011;65395;53.168;18.156;2023-05-14T13:43:35;5.90;;;3.30;;
76552;SDS011;65395;53.168;18.156;2023-05-14T13:46:03;7.60;;;3.10;;
76552;SDS011;65395;53.168;18.156;2023-05-14T13:48:31;8.10;;;2.90;;
76552;SDS011;65395;53.168;18.156;2023-05-14T13:50:58;7.00;;;3.20;;
76552;SDS011;65395;53.168;18.156;2023-05-14T13:53:25;5.00;;;2.70;;
76552;SDS011;65395;53.168;18.156;2023-05-14T13:55:52;4.60;;;2.70;;
76552;SDS011;65395;53.168;18.156;2023-05-14T13:58:23;5.10;;;2.90;;
76552;SDS011;65395;53.168;18.156;2023-05-14T14:00:51;4.90;;;3.10;;
76552;SDS011;65395;53.168;18.156;2023-05-14T14:03:18;6.30;;;3.00;;
76552;SDS011;65395;53.168;18.156;2023-05-14T14:05:45;3.60;;;3.00;;
76552;SDS011;65395;53.168;18.156;2023-05-14T14:08:13;8.70;;;2.90;;
76552;SDS011;65395;53.168;18.156;2023-05-14T14:10:40;4.80;;;3.10;;
76552;SDS011;65395;53.168;18.156;2023-05-14T14:13:08;4.40;;;2.90;;
76552;SDS011;65395;53.168;18.156;2023-05-14T14:15:36;6.50;;;3.20;;
76552;SDS011;65395;53.168;18.156;2023-05-14T14:18:03;5.60;;;2.80;;
76552;SDS011;65395;53.168;18.156;2023-05-14T14:20:30;6.90;;;3.00;;
76552;SDS011;65395;53.168;18.156;2023-05-14T14:22:57;5.50;;;3.30;;
76552;SDS011;65395;53.168;18.156;2023-05-14T14:25:24;9.00;;;3.30;;
76552;SDS011;65395;53.168;18.156;2023-05-14T14:27:51;3.60;;;2.60;;
76552;SDS011;65395;53.168;18.156;2023-05-14T14:30:18;7.30;;;3.10;;
76552;SDS011;65395;53.168;18.156;2023-05-14T14:32:46;4.90;;;2.90;;
76552;SDS011;65395;53.168;18.156;2023-05-14T14:35:15;4.70;;;3.00;;